Time;durP1;ratioP1;P1;durP2;ratioP2;P2;SDS_P1;SDS_P2;PMS_P1;PMS_P2;Temp;Humidity;BMP_temperature;BMP_pressure;BME280_temperature;BME280_humidity;BME280_pressure;Samples;Min_cycle;Max_cycle;Signal;HPM_P1;HPM_P2
2023/12/02 00:01:03;;;;;;;36.60;15.35;;;;;;;-2.40;100.00;100421.25;7386472;19;20143;-42
2023/12/02 00:03:32;;;;;;;32.08;14.55;;;;;;;-2.54;100.00;100414.06;7365760;19;20281;-42
2023/12/02 00:06:02;;;;;;;23.40;12.05;;;;;;;-2.57;100.00;100407.09;7387198;19;20146;-41
2023/12/02 00:08:32;;;;;;;27.70;12.50;;;;;;;-2.61;100.00;100408.47;7364665;19;20198;-40
2023/12/02 00:11:02;;;;;;;27.17;12.95;;;;;;;-2.57;100.00;100407.09;7386612;19;20147;-40
2023/12/02 00:13:31;;;;;;;26.75;12.25;;;;;;;-2.69;100.00;100401.84;7363727;19;20197;-40
2023/12/02 00:16:03;;;;;;;22.55;12.43;;;;;;;-2.69;100.00;100396.81;7386601;19;20138;-41
2023/12/02 00:18:33;;;;;;;25.27;12.68;;;;;;;-2.63;100.00;100407.44;7364123;19;20275;-41
2023/12/02 00:21:03;;;;;;;35.45;12.93;;;;;;;-2.66;100.00;100396.19;7384680;19;20138;-41
2023/12/02 00:23:33;;;;;;;27.55;11.63;;;;;;;-2.62;100.00;100395.72;7359702;19;20211;-41
2023/12/02 00:26:02;;;;;;;27.60;12.10;;;;;;;-2.47;100.00;100399.59;7388792;19;20501;-41
2023/12/02 00:28:32;;;;;;;25.13;11.55;;;;;;;-2.41;100.00;100395.84;7364570;19;20206;-40
2023/12/02 00:31:04;;;;;;;27.33;12.50;;;;;;;-2.45;100.00;100389.63;7385273;19;20146;-42
2023/12/02 00:33:33;;;;;;;24.02;11.10;;;;;;;-2.52;100.00;100387.31;7361498;19;20190;-41
2023/12/02 00:36:03;;;;;;;80.75;26.15;;;;;;;-2.46;100.00;100388.72;7385922;19;20143;-41
2023/12/02 00:38:33;;;;;;;27.00;12.40;;;;;;;-2.46;100.00;100380.28;7361812;19;20604;-43
2023/12/02 00:41:03;;;;;;;22.90;11.02;;;;;;;-2.55;100.00;100380.34;7386796;19;20210;-41
2023/12/02 00:43:32;;;;;;;24.13;11.55;;;;;;;-2.63;100.00;100376.25;7363936;19;20193;-40
2023/12/02 00:46:04;;;;;;;24.58;11.88;;;;;;;-2.70;100.00;100379.88;7386888;19;20511;-41
2023/12/02 00:48:34;;;;;;;27.55;11.60;;;;;;;-2.72;100.00;100378.88;7362831;19;20209;-40
2023/12/02 00:51:04;;;;;;;26.75;11.65;;;;;;;-2.56;100.00;100382.72;7385838;19;20150;-40
2023/12/02 00:53:33;;;;;;;27.35;12.07;;;;;;;-2.55;100.00;100387.03;7362421;19;20194;-41
2023/12/02 00:56:03;;;;;;;27.58;12.60;;;;;;;-2.59;100.00;100381.72;7385952;19;20147;-42
2023/12/02 00:58:33;;;;;;;24.70;10.50;;;;;;;-2.65;100.00;100378.66;7363307;19;20194;-40
2023/12/02 01:01:12;;;;;;;36.88;14.55;;;;;;;-2.49;100.00;100377.47;7385874;19;20142;-40
2023/12/02 01:03:42;;;;;;;25.52;11.27;;;;;;;-2.60;100.00;100382.44;7364693;19;20675;-41
2023/12/02 01:06:12;;;;;;;21.85;10.45;;;;;;;-2.65;100.00;100377.75;7385523;19;20202;-40
2023/12/02 01:08:42;;;;;;;25.67;10.88;;;;;;;-2.67;100.00;100370.03;7363942;19;20675;-40
2023/12/02 01:11:11;;;;;;;21.45;11.52;;;;;;;-2.68;100.00;100368.25;7384742;19;20143;-42
2023/12/02 01:13:41;;;;;;;25.40;11.45;;;;;;;-2.69;100.00;100371.53;7362248;19;20188;-40
2023/12/02 01:16:13;;;;;;;24.52;10.80;;;;;;;-2.54;100.00;100382.13;7385168;19;20139;-41
2023/12/02 01:18:43;;;;;;;28.42;13.18;;;;;;;-2.53;100.00;100380.47;7363010;19;20667;-41
2023/12/02 01:21:12;;;;;;;28.95;11.10;;;;;;;-2.65;100.00;100378.66;7384666;19;20188;-43
2023/12/02 01:23:42;;;;;;;23.33;9.90;;;;;;;-2.61;100.00;100384.88;7362563;19;20178;-41
2023/12/02 01:26:11;;;;;;;20.95;10.30;;;;;;;-2.50;100.00;100391.75;7387306;19;20580;-41
2023/12/02 01:28:41;;;;;;;20.80;10.43;;;;;;;-2.52;100.00;100388.19;7362574;19;20186;-41
2023/12/02 01:31:14;;;;;;;24.15;10.35;;;;;;;-2.71;100.00;100378.97;7381967;19;20415;-40
2023/12/02 01:33:43;;;;;;;25.88;11.57;;;;;;;-2.78;100.00;100389.28;7361786;19;20201;-40
2023/12/02 01:36:14;;;;;;;20.45;9.73;;;;;;;-2.80;100.00;100397.47;7385706;19;20215;-41
2023/12/02 01:38:44;;;;;;;22.45;10.85;;;;;;;-2.75;100.00;100391.19;7362902;19;20186;-41
2023/12/02 01:41:14;;;;;;;21.58;10.27;;;;;;;-2.65;100.00;100398.88;7384074;19;20192;-41
2023/12/02 01:43:44;;;;;;;21.73;9.88;;;;;;;-2.79;100.00;100399.25;7363464;19;20183;-41
2023/12/02 01:46:17;;;;;;;22.02;10.32;;;;;;;-2.78;100.00;100396.00;7386314;19;20142;-43
2023/12/02 01:48:47;;;;;;;21.42;10.02;;;;;;;-2.77;100.00;100397.78;7370599;19;20182;-41
2023/12/02 01:51:17;;;;;;;24.30;10.95;;;;;;;-2.81;100.00;100400.75;7368357;19;20243;-41
2023/12/02 01:53:46;;;;;;;26.40;9.57;;;;;;;-2.74;100.00;100396.41;7389424;19;20147;-41
2023/12/02 01:56:18;;;;;;;20.77;10.63;;;;;;;-2.74;100.00;100395.50;7371030;19;20499;-41
2023/12/02 01:58:48;;;;;;;21.60;10.10;;;;;;;-2.73;100.00;100393.13;7391563;19;20525;-41
2023/12/02 02:01:20;;;;;;;27.75;10.85;;;;;;;-2.48;100.00;100395.28;7367756;19;20547;-40
2023/12/02 02:03:50;;;;;;;22.15;10.25;;;;;;;-2.56;100.00;100393.75;7389178;19;20147;-40
2023/12/02 02:06:20;;;;;;;26.83;10.85;;;;;;;-2.63;100.00;100383.81;7367992;19;20151;-41
2023/12/02 02:08:49;;;;;;;20.73;11.32;;;;;;;-2.73;100.00;100388.06;7388707;19;20631;-40
2023/12/02 02:11:19;;;;;;;24.42;10.25;;;;;;;-2.76;100.00;100380.19;7367594;19;20238;-40
2023/12/02 02:13:49;;;;;;;20.27;9.98;;;;;;;-2.76;100.00;100391.97;7389181;19;20808;-41
2023/12/02 02:16:21;;;;;;;23.63;11.20;;;;;;;-2.74;100.00;100387.91;7367795;19;20143;-41
2023/12/02 02:18:50;;;;;;;23.95;10.43;;;;;;;-2.74;100.00;100392.97;7387889;19;20225;-40
2023/12/02 02:21:23;;;;;;;25.73;11.55;;;;;;;-2.65;100.00;100393.81;7366594;19;20190;-40
2023/12/02 02:23:53;;;;;;;22.77;9.65;;;;;;;-2.64;100.00;100404.78;7391312;19;20156;-40
2023/12/02 02:26:23;;;;;;;22.88;10.82;;;;;;;-2.70;100.00;100402.63;7367001;19;20627;-41
2023/12/02 02:28:52;;;;;;;23.20;10.75;;;;;;;-2.51;100.00;100401.72;7388491;19;20143;-41
2023/12/02 02:31:22;;;;;;;23.52;10.93;;;;;;;-2.57;100.00;100397.00;7366488;19;20651;-40
2023/12/02 02:33:52;;;;;;;20.17;9.85;;;;;;;-2.63;100.00;100397.34;7389811;19;20247;-41
2023/12/02 02:36:24;;;;;;;20.67;9.93;;;;;;;-2.62;100.00;100403.31;7366843;19;20151;-41
2023/12/02 02:38:53;;;;;;;25.15;10.57;;;;;;;-2.66;100.00;100396.19;7388077;19;20170;-40
2023/12/02 02:41:23;;;;;;;21.90;10.13;;;;;;;-2.65;100.00;100392.91;7375177;19;20174;-41
2023/12/02 02:43:54;;;;;;;22.05;10.05;;;;;;;-2.56;100.00;100397.91;7395521;19;20573;-41
2023/12/02 02:46:23;;;;;;;22.83;10.73;;;;;;;-2.47;100.00;100394.53;7372358;19;20143;-41
2023/12/02 02:48:53;;;;;;;25.38;9.73;;;;;;;-2.53;100.00;100391.47;7395682;19;20214;-40
2023/12/02 02:51:25;;;;;;;23.75;11.07;;;;;;;-2.50;100.00;100391.75;7373113;19;20179;-41
2023/12/02 02:53:55;;;;;;;24.95;10.70;;;;;;;-2.54;100.00;100386.28;7397219;19;20633;-40
2023/12/02 02:56:25;;;;;;;41.63;17.27;;;;;;;-2.43;100.00;100392.28;7372892;19;20154;-40
2023/12/02 02:58:54;;;;;;;26.30;10.77;;;;;;;-2.55;100.00;100382.88;7394658;19;20539;-40
2023/12/02 03:01:24;;;;;;;24.25;10.98;;;;;;;-2.59;100.00;100378.28;7372670;19;20193;-42
2023/12/02 03:03:53;;;;;;;21.40;10.20;;;;;;;-2.59;100.00;100394.34;7395438;19;20214;-41
2023/12/02 03:06:27;;;;;;;24.75;10.05;;;;;;;-2.57;100.00;100384.34;7373166;19;20143;-41
2023/12/02 03:08:56;;;;;;;27.10;11.07;;;;;;;-2.60;100.00;100392.56;7395188;19;20694;-41
2023/12/02 03:11:26;;;;;;;21.15;10.50;;;;;;;-2.55;100.00;100385.41;7372475;19;20179;-41
2023/12/02 03:13:56;;;;;;;29.35;10.48;;;;;;;-2.55;100.00;100384.50;7395466;19;20143;-42
2023/12/02 03:16:25;;;;;;;42.80;16.45;;;;;;;-2.46;100.00;100385.34;7373052;19;20146;-41
2023/12/02 03:18:55;;;;;;;23.85;10.82;;;;;;;-2.51;100.00;100381.50;7395383;19;20180;-42
2023/12/02 03:21:27;;;;;;;20.88;10.43;;;;;;;-2.56;100.00;100378.59;7372720;19;20557;-41
2023/12/02 03:23:57;;;;;;;24.10;10.30;;;;;;;-2.63;100.00;100377.13;7395597;19;20142;-42
2023/12/02 03:26:27;;;;;;;22.95;10.40;;;;;;;-2.60;100.00;100379.91;7373175;19;20147;-41
2023/12/02 03:28:57;;;;;;;20.65;10.32;;;;;;;-2.55;100.00;100381.97;7395472;19;20147;-42
2023/12/02 03:31:26;;;;;;;23.77;10.65;;;;;;;-2.58;100.00;100391.06;7371838;19;20174;-42
2023/12/02 03:33:56;;;;;;;22.40;10.40;;;;;;;-2.49;100.00;100392.63;7395094;19;20143;-43
2023/12/02 03:36:28;;;;;;;28.55;11.20;;;;;;;-2.43;100.00;100390.63;7372501;19;20147;-42
2023/12/02 03:38:58;;;;;;;22.33;10.25;;;;;;;-2.42;100.00;100394.06;7395322;19;20165;-42
2023/12/02 03:41:28;;;;;;;23.85;9.25;;;;;;;-2.45;100.00;100398.06;7372273;19;20182;-42
2023/12/02 03:43:58;;;;;;;32.13;13.68;;;;;;;-2.37;100.00;100391.19;7394421;19;20139;-42
2023/12/02 03:46:29;;;;;;;20.13;9.32;;;;;;;-2.48;100.00;100389.34;7370574;19;20253;-42
2023/12/02 03:48:58;;;;;;;23.67;9.80;;;;;;;-2.46;100.00;100385.34;7395063;19;20142;-43
2023/12/02 03:51:31;;;;;;;24.73;10.50;;;;;;;-2.48;100.00;100390.25;7370927;19;20197;-42
2023/12/02 03:54:01;;;;;;;22.90;10.52;;;;;;;-2.43;100.00;100390.63;7395146;19;20194;-43
2023/12/02 03:56:31;;;;;;;20.98;9.40;;;;;;;-2.44;100.00;100388.88;7372294;19;20138;-42
2023/12/02 03:59:00;;;;;;;22.58;10.18;;;;;;;-2.46;100.00;100391.25;7395027;19;20147;-42
2023/12/02 04:01:31;;;;;;;20.80;9.68;;;;;;;-2.44;100.00;100393.91;7371481;19;20190;-43
2023/12/02 04:04:00;;;;;;;23.42;10.60;;;;;;;-2.46;100.00;100387.84;7394490;19;20710;-43
2023/12/02 04:06:33;;;;;;;20.50;10.35;;;;;;;-2.44;100.00;100393.91;7372185;19;20150;-41
2023/12/02 04:09:05;;;;;;;24.40;10.15;;;;;;;-2.49;100.00;100397.69;7392160;19;20150;-43
2023/12/02 04:11:34;;;;;;;22.63;10.13;;;;;;;-2.44;100.00;100398.97;7372416;19;20286;-42
2023/12/02 04:14:04;;;;;;;23.77;10.48;;;;;;;-2.42;100.00;100389.00;7394089;19;20143;-42
2023/12/02 04:16:34;;;;;;;23.90;10.93;;;;;;;-2.46;100.00;100391.25;7371697;19;20143;-43
2023/12/02 04:19:04;;;;;;;22.00;9.57;;;;;;;-2.39;100.00;100395.22;7394381;19;20146;-42
2023/12/02 04:21:36;;;;;;;20.88;9.15;;;;;;;-2.44;100.00;100393.91;7371382;19;20188;-43
2023/12/02 04:24:06;;;;;;;24.90;10.25;;;;;;;-2.45;100.00;100395.53;7392162;19;20178;-43
2023/12/02 04:26:36;;;;;;;23.50;10.20;;;;;;;-2.43;100.00;100398.22;7371881;19;20187;-42
2023/12/02 04:29:06;;;;;;;21.42;9.63;;;;;;;-2.41;100.00;100398.34;7392247;19;20143;-42
2023/12/02 04:31:36;;;;;;;23.83;10.23;;;;;;;-2.46;100.00;100397.97;7370411;19;20195;-43
2023/12/02 04:34:05;;;;;;;20.98;10.50;;;;;;;-2.45;100.00;100397.22;7393227;19;20143;-42
2023/12/02 04:36:37;;;;;;;20.17;9.05;;;;;;;-2.39;100.00;100407.84;7371497;19;20233;-41
2023/12/02 04:39:11;;;;;;;19.60;8.98;;;;;;;-2.38;100.00;100409.63;7391859;19;20162;-44
2023/12/02 04:41:41;;;;;;;19.13;10.75;;;;;;;-2.36;100.00;100407.25;7372041;19;20273;-42
2023/12/02 04:44:10;;;;;;;22.45;10.82;;;;;;;-2.39;100.00;100402.81;7393564;19;20138;-42
2023/12/02 04:46:40;;;;;;;19.85;9.70;;;;;;;-2.37;100.00;100408.88;7369207;19;20269;-42
2023/12/02 04:49:11;;;;;;;22.63;9.75;;;;;;;-2.35;100.00;100407.34;7392068;19;20142;-42
2023/12/02 04:51:43;;;;;;;23.10;10.50;;;;;;;-2.32;100.00;100407.63;7369729;19;20598;-42
2023/12/02 04:54:13;;;;;;;18.75;8.57;;;;;;;-2.38;100.00;100407.09;7391978;19;20155;-42
2023/12/02 04:56:43;;;;;;;25.50;9.95;;;;;;;-2.40;100.00;100406.09;7370734;19;20198;-42
2023/12/02 04:59:12;;;;;;;21.13;9.88;;;;;;;-2.42;100.00;100402.50;7392843;19;20153;-42
2023/12/02 05:01:42;;;;;;;20.13;9.73;;;;;;;-2.39;100.00;100407.84;7369529;19;20282;-43
2023/12/02 05:04:11;;;;;;;22.73;9.85;;;;;;;-2.42;100.00;100410.09;7391113;19;20135;-43
2023/12/02 05:06:44;;;;;;;20.23;9.82;;;;;;;-2.46;100.00;100411.47;7369725;19;20204;-44
2023/12/02 05:09:16;;;;;;;21.08;9.95;;;;;;;-2.41;100.00;100418.56;7391471;19;20155;-42
2023/12/02 05:11:45;;;;;;;21.90;10.80;;;;;;;-2.45;100.00;100414.91;7369776;19;20254;-41
2023/12/02 05:14:15;;;;;;;21.23;10.27;;;;;;;-2.39;100.00;100410.38;7391009;19;20155;-42
2023/12/02 05:16:45;;;;;;;25.50;10.07;;;;;;;-2.36;100.00;100418.22;7370741;19;20217;-42
2023/12/02 05:19:15;;;;;;;20.33;9.30;;;;;;;-2.36;100.00;100417.34;7390944;19;20139;-42
2023/12/02 05:21:47;;;;;;;19.48;9.40;;;;;;;-2.32;100.00;100420.28;7375108;19;20209;-43
2023/12/02 05:24:17;;;;;;;21.55;9.63;;;;;;;-2.35;100.00;100417.47;7395100;19;20906;-42
2023/12/02 05:26:46;;;;;;;17.33;9.00;;;;;;;-2.40;100.00;100418.72;7376485;19;20217;-42
2023/12/02 05:29:16;;;;;;;23.05;10.35;;;;;;;-2.37;100.00;100416.44;7397306;19;20155;-41
2023/12/02 05:31:45;;;;;;;20.35;9.40;;;;;;;-2.36;100.00;100425.81;7378045;19;20216;-42
2023/12/02 05:34:15;;;;;;;23.23;10.68;;;;;;;-2.41;100.00;100427.03;7396952;19;20624;-41
2023/12/02 05:36:49;;;;;;;20.88;9.65;;;;;;;-2.31;100.00;100421.16;7375426;19;20297;-42
2023/12/02 05:39:19;;;;;;;24.65;10.20;;;;;;;-2.31;100.00;100421.16;7396269;19;20211;-41
2023/12/02 05:41:48;;;;;;;23.98;9.95;;;;;;;-2.37;100.00;100426.56;7376100;19;20209;-42
2023/12/02 05:44:19;;;;;;;23.15;10.27;;;;;;;-2.39;100.00;100420.50;7397053;19;20158;-41
2023/12/02 05:46:48;;;;;;;21.48;10.23;;;;;;;-2.32;100.00;100420.28;7374299;19;20996;-42
2023/12/02 05:49:18;;;;;;;24.63;10.90;;;;;;;-2.35;100.00;100416.59;7396148;19;20142;-42
2023/12/02 05:51:50;;;;;;;24.33;10.05;;;;;;;-2.39;100.00;100428.06;7375695;19;20227;-41
2023/12/02 05:54:20;;;;;;;22.92;10.57;;;;;;;-2.29;100.00;100423.81;7396634;19;20483;-41
2023/12/02 05:56:52;;;;;;;21.58;9.90;;;;;;;-2.36;100.00;100430.84;7375367;19;20202;-41
2023/12/02 05:59:22;;;;;;;24.58;10.68;;;;;;;-2.42;100.00;100422.72;7396406;19;20151;-40
2023/12/02 06:01:52;;;;;;;21.23;9.77;;;;;;;-2.32;100.00;100429.47;7377038;19;20616;-42
2023/12/02 06:04:21;;;;;;;22.10;9.85;;;;;;;-2.28;100.00;100425.59;7399498;19;20178;-41
2023/12/02 06:06:53;;;;;;;20.70;9.73;;;;;;;-2.38;100.00;100429.84;7375308;19;20248;-40
2023/12/02 06:09:23;;;;;;;23.65;10.45;;;;;;;-2.35;100.00;100435.16;7395847;19;20142;-41
2023/12/02 06:11:52;;;;;;;23.85;10.50;;;;;;;-2.25;100.00;100435.97;7375122;19;20221;-40
2023/12/02 06:14:22;;;;;;;20.45;9.52;;;;;;;-2.35;100.00;100440.22;7395274;19;20150;-41
2023/12/02 06:16:52;;;;;;;19.42;9.85;;;;;;;-2.34;100.00;100439.47;7375153;19;20217;-42
2023/12/02 06:19:22;;;;;;;22.73;10.45;;;;;;;-2.37;100.00;100441.72;7395480;19;20904;-40
2023/12/02 06:21:54;;;;;;;23.25;10.98;;;;;;;-2.44;100.00;100439.41;7374815;19;20209;-40
2023/12/02 06:24:23;;;;;;;23.88;10.63;;;;;;;-2.37;100.00;100446.78;7396219;19;20149;-41
2023/12/02 06:26:53;;;;;;;26.35;11.70;;;;;;;-2.37;100.00;100448.44;7375283;19;20221;-41
2023/12/02 06:29:23;;;;;;;21.75;10.07;;;;;;;-2.33;100.00;100448.84;7395369;19;20198;-41
2023/12/02 06:31:53;;;;;;;23.05;10.20;;;;;;;-2.34;100.00;100452.13;7374434;19;20604;-42
2023/12/02 06:34:23;;;;;;;24.30;11.25;;;;;;;-2.38;100.00;100455.13;7396898;19;20143;-40
2023/12/02 06:36:55;;;;;;;25.50;11.73;;;;;;;-2.40;100.00;100461.69;7374643;19;20258;-40
2023/12/02 06:39:25;;;;;;;21.08;10.60;;;;;;;-2.39;100.00;100462.56;7395110;19;20147;-41
2023/12/02 06:41:54;;;;;;;25.25;11.35;;;;;;;-2.34;100.00;100462.22;7374779;19;20201;-41
2023/12/02 06:44:24;;;;;;;23.45;10.43;;;;;;;-2.35;100.00;100457.91;7395441;19;20142;-42
2023/12/02 06:46:55;;;;;;;25.92;10.90;;;;;;;-2.32;100.00;100475.88;7373229;19;20190;-41
2023/12/02 06:49:25;;;;;;;28.65;10.95;;;;;;;-2.17;100.00;100470.41;7394893;19;20513;-41
2023/12/02 06:51:57;;;;;;;27.23;11.55;;;;;;;-2.25;100.00;100472.25;7374056;19;20679;-41
2023/12/02 06:54:26;;;;;;;23.02;10.93;;;;;;;-2.29;100.00;100471.84;7395465;19;20147;-40
2023/12/02 06:56:56;;;;;;;88.30;28.00;;;;;;;-1.91;100.00;100485.34;7374252;19;20194;-41
2023/12/02 06:59:26;;;;;;;36.38;13.10;;;;;;;-2.12;100.00;100488.50;7394278;19;20507;-41
2023/12/02 07:01:55;;;;;;;25.45;11.25;;;;;;;-2.22;100.00;100486.78;7373440;19;20250;-41
2023/12/02 07:04:25;;;;;;;27.67;11.63;;;;;;;-2.10;100.00;100497.13;7397350;19;20174;-42
2023/12/02 07:06:57;;;;;;;23.88;10.48;;;;;;;-1.99;100.00;100498.06;7375880;19;20570;-41
2023/12/02 07:09:27;;;;;;;33.53;12.65;;;;;;;-1.70;100.00;100505.66;7396659;19;20157;-41
2023/12/02 07:11:57;;;;;;;33.60;13.65;;;;;;;-1.55;100.00;100503.56;7373522;19;20278;-44
2023/12/02 07:14:26;;;;;;;25.77;11.70;;;;;;;-1.72;100.00;100493.63;7395533;19;20163;-42
2023/12/02 07:16:56;;;;;;;52.55;16.90;;;;;;;-1.91;100.00;100485.34;7375212;19;20273;-42
2023/12/02 07:19:26;;;;;;;31.40;12.85;;;;;;;-1.97;100.00;100478.84;7394382;19;20146;-41
2023/12/02 07:21:58;;;;;;;29.38;13.45;;;;;;;-1.97;100.00;100487.31;7373228;19;20681;-41
2023/12/02 07:24:27;;;;;;;29.27;12.52;;;;;;;-2.10;100.00;100490.41;7396836;19;20158;-42
2023/12/02 07:26:57;;;;;;;32.13;13.27;;;;;;;-2.12;100.00;100496.97;7373601;19;20201;-43
2023/12/02 07:29:27;;;;;;;25.10;10.95;;;;;;;-2.17;100.00;100500.72;7394124;19;20143;-41
2023/12/02 07:31:59;;;;;;;24.38;11.85;;;;;;;-2.25;100.00;100506.75;7373816;19;20560;-42
2023/12/02 07:34:29;;;;;;;26.63;12.10;;;;;;;-2.23;100.00;100511.19;7394539;19;20885;-41
2023/12/02 07:37:01;;;;;;;28.02;11.50;;;;;;;-2.24;100.00;100511.97;7372827;19;20202;-41
2023/12/02 07:39:30;;;;;;;23.98;10.90;;;;;;;-2.17;100.00;100515.91;7395980;19;20146;-41
2023/12/02 07:42:00;;;;;;;30.45;12.02;;;;;;;-2.13;100.00;100523.03;7373463;19;20210;-42
2023/12/02 07:44:30;;;;;;;26.60;12.07;;;;;;;-2.08;100.00;100525.94;7391420;19;20159;-41
2023/12/02 07:47:00;;;;;;;26.08;11.68;;;;;;;-2.12;100.00;100522.25;7371621;19;20202;-42
2023/12/02 07:49:30;;;;;;;29.90;11.60;;;;;;;-2.01;100.00;100528.25;7392693;19;20146;-43
2023/12/02 07:52:02;;;;;;;26.15;11.60;;;;;;;-1.90;100.00;100531.72;7372430;19;20735;-42
2023/12/02 07:54:31;;;;;;;27.58;11.90;;;;;;;-2.04;100.00;100528.88;7394181;19;20167;-41
2023/12/02 07:57:02;;;;;;;29.95;11.65;;;;;;;-1.80;100.00;100529.28;7371749;19;20285;-42
2023/12/02 07:59:32;;;;;;;28.60;12.25;;;;;;;-1.86;100.00;100532.91;7393614;19;20218;-42
2023/12/02 08:02:02;;;;;;;25.17;11.73;;;;;;;-1.94;100.00;100524.66;7372860;19;20205;-42
2023/12/02 08:04:31;;;;;;;25.55;11.82;;;;;;;-2.01;100.00;100532.44;7393390;19;20151;-41
2023/12/02 08:07:04;;;;;;;29.90;10.70;;;;;;;-2.16;100.00;100532.84;7373760;19;20197;-41
2023/12/02 08:09:34;;;;;;;24.95;11.25;;;;;;;-2.19;100.00;100530.94;7394720;19;20149;-41
2023/12/02 08:12:04;;;;;;;24.65;11.18;;;;;;;-2.10;100.00;100542.63;7372198;19;20198;-41
2023/12/02 08:14:34;;;;;;;30.85;11.35;;;;;;;-1.99;100.00;100543.59;7394006;19;20167;-42
2023/12/02 08:17:03;;;;;;;25.67;10.77;;;;;;;-2.08;100.00;100548.69;7371705;19;20259;-41
2023/12/02 08:19:33;;;;;;;23.90;10.85;;;;;;;-2.26;100.00;100551.34;7392717;19;20142;-42
2023/12/02 08:22:06;;;;;;;23.40;10.40;;;;;;;-2.15;100.00;100564.09;7372014;19;20209;-42
2023/12/02 08:24:42;;;;;;;23.98;11.07;;;;;;;-2.04;100.00;100560.88;7395418;19;20153;-41
2023/12/02 08:27:12;;;;;;;27.35;10.35;;;;;;;-2.10;100.00;100558.69;7370605;19;20214;-42
2023/12/02 08:29:41;;;;;;;25.20;11.02;;;;;;;-2.18;100.00;100558.00;7393556;19;20143;-41
2023/12/02 08:32:12;;;;;;;22.60;10.80;;;;;;;-2.17;100.00;100571.53;7371130;19;20202;-42
2023/12/02 08:34:41;;;;;;;24.92;11.32;;;;;;;-2.16;100.00;100565.72;7391929;19;20170;-42
2023/12/02 08:37:14;;;;;;;36.13;12.80;;;;;;;-1.96;100.00;100571.66;7367484;19;20190;-41
2023/12/02 08:39:44;;;;;;;23.85;11.10;;;;;;;-2.02;100.00;100576.19;7393072;19;20158;-41
2023/12/02 08:42:13;;;;;;;23.20;11.25;;;;;;;-2.06;100.00;100580.97;7370246;19;20204;-42
2023/12/02 08:44:43;;;;;;;25.58;10.45;;;;;;;-2.15;100.00;100590.28;7392684;19;20143;-42
2023/12/02 08:47:12;;;;;;;25.67;10.75;;;;;;;-1.96;100.00;100587.72;7368145;19;20198;-41
2023/12/02 08:49:42;;;;;;;28.25;12.07;;;;;;;-1.89;100.00;100596.78;7392802;19;20142;-44
2023/12/02 08:52:14;;;;;;;22.05;10.90;;;;;;;-1.90;100.00;100593.34;7369433;19;20702;-42
2023/12/02 08:54:43;;;;;;;27.88;12.18;;;;;;;-1.91;100.00;100600.78;7392607;19;20219;-42
2023/12/02 08:57:13;;;;;;;23.17;10.32;;;;;;;-1.96;100.00;100597.84;7369134;19;20277;-41
2023/12/02 08:59:43;;;;;;;29.60;11.32;;;;;;;-1.97;100.00;100602.75;7392400;19;20142;-42
2023/12/02 09:02:12;;;;;;;28.60;12.27;;;;;;;-1.91;100.00;100600.78;7369052;19;20269;-42
2023/12/02 09:04:42;;;;;;;29.10;11.90;;;;;;;-1.90;100.00;100607.59;7392089;19;20146;-42
2023/12/02 09:07:14;;;;;;;26.17;11.48;;;;;;;-1.85;100.00;100606.38;7370456;19;20190;-42
2023/12/02 09:09:44;;;;;;;26.80;12.45;;;;;;;-1.84;100.00;100613.22;7391947;19;20210;-40
2023/12/02 09:12:14;;;;;;;26.63;12.45;;;;;;;-1.87;100.00;100615.50;7369918;19;20630;-43
2023/12/02 09:14:43;;;;;;;25.55;12.80;;;;;;;-1.83;100.00;100619.19;7391046;19;20141;-42
2023/12/02 09:17:41;;;;;;;30.42;13.65;;;;;;;-1.82;100.00;100609.22;7370160;19;20766;-42
2023/12/02 09:20:34;;;;;;;26.75;13.02;;;;;;;-1.79;100.00;100617.06;7390828;19;20611;-42
2023/12/02 09:23:07;;;;;;;27.48;12.27;;;;;;;-1.72;100.00;100620.13;7370147;19;20209;-41
2023/12/02 09:25:38;;;;;;;29.65;15.02;;;;;;;-1.58;100.00;100619.72;7392114;19;20621;-43
2023/12/02 09:28:16;;;;;;;26.15;11.68;;;;;;;-1.69;100.00;100612.81;7363878;19;20662;-42
2023/12/02 09:31:08;;;;;;;23.80;12.40;;;;;;;-1.77;100.00;100605.44;7386887;19;20157;-41
2023/12/02 09:33:40;;;;;;;28.58;12.18;;;;;;;-1.76;100.00;100611.38;7362588;19;20197;-41
2023/12/02 09:36:10;;;;;;;26.95;12.13;;;;;;;-1.82;100.00;100616.78;7387224;19;20143;-42
2023/12/02 09:38:43;;;;;;;24.90;11.25;;;;;;;-1.86;100.00;100619.78;7361718;19;20698;-41
2023/12/02 09:41:21;;;;;;;30.17;12.13;;;;;;;-1.78;100.00;100628.06;7384158;19;20146;-44
2023/12/02 09:44:10;;;;;;;24.48;11.43;;;;;;;-1.72;100.00;100622.66;7360091;19;20257;-41
2023/12/02 09:46:46;;;;;;;23.05;10.98;;;;;;;-1.82;100.00;100619.31;7362019;19;20225;-41
2023/12/02 09:49:45;;;;;;;28.60;12.73;;;;;;;-1.77;100.00;100620.63;7384203;19;20183;-41
2023/12/02 09:52:53;;;;;;;27.50;11.57;;;;;;;-1.73;100.00;100621.78;7360345;19;20759;-41
2023/12/02 09:55:32;;;;;;;25.35;11.73;;;;;;;-1.69;100.00;100602.69;7383027;19;20610;-41
2023/12/02 09:58:11;;;;;;;26.67;11.90;;;;;;;-1.50;100.00;100616.22;7360190;19;20806;-45
2023/12/02 10:00:46;;;;;;;25.65;12.48;;;;;;;-1.51;100.00;100611.91;7383823;19;20670;-43
2023/12/02 10:03:28;;;;;;;24.98;11.68;;;;;;;-1.52;100.00;100612.69;7359794;19;20563;-42
2023/12/02 10:06:06;;;;;;;26.95;12.35;;;;;;;-1.52;100.00;100604.19;7384397;19;20509;-42
2023/12/02 10:08:43;;;;;;;34.00;12.98;;;;;;;-1.50;100.00;100606.09;7368198;19;20185;-42
2023/12/02 10:11:20;;;;;;;27.95;12.10;;;;;;;-1.32;100.00;100610.09;7392166;19;20149;-42
2023/12/02 10:13:55;;;;;;;26.27;11.40;;;;;;;-1.18;100.00;100608.78;7367237;19;20203;-41
2023/12/02 10:16:26;;;;;;;34.63;14.15;;;;;;;-1.07;100.00;100604.63;7365150;19;21715;-41
2023/12/02 10:19:01;;;;;;;23.83;11.38;;;;;;;-1.11;100.00;100606.00;7391520;19;20168;-41
2023/12/02 10:21:32;;;;;;;25.90;10.85;;;;;;;-1.23;100.00;100611.78;7372975;19;20181;-41
2023/12/02 10:24:05;;;;;;;23.83;10.48;;;;;;;-1.24;100.00;100612.53;7395552;19;20207;-42
2023/12/02 10:26:43;;;;;;;25.70;11.65;;;;;;;-1.20;100.00;100621.28;7376756;19;20157;-41
2023/12/02 10:29:18;;;;;;;22.65;10.52;;;;;;;-1.18;100.00;100619.75;7395767;19;20135;-43
2023/12/02 10:31:57;;;;;;;26.13;10.63;;;;;;;-1.16;100.00;100618.28;7374321;19;20215;-43
2023/12/02 10:34:31;;;;;;;19.48;9.45;;;;;;;-1.18;100.00;100613.84;7395871;19;20151;-41
2023/12/02 10:37:02;;;;;;;22.35;8.48;;;;;;;-1.21;100.00;100614.44;7375066;19;20205;-41
2023/12/02 10:39:38;;;;;;;17.52;7.75;;;;;;;-1.26;100.00;100611.53;7396143;19;20579;-40
2023/12/02 10:42:13;;;;;;;22.90;9.68;;;;;;;-1.33;100.00;100616.81;7374258;19;20201;-41
2023/12/02 10:44:44;;;;;;;16.33;7.65;;;;;;;-1.26;100.00;100616.59;7399009;19;20144;-41
2023/12/02 10:47:14;;;;;;;16.75;7.55;;;;;;;-1.26;100.00;100614.06;7371235;19;20200;-41
2023/12/02 10:49:45;;;;;;;15.35;7.55;;;;;;;-1.27;100.00;100614.78;7395793;19;20147;-42
2023/12/02 10:52:16;;;;;;;33.53;12.55;;;;;;;-1.22;100.00;100623.69;7372951;19;20201;-41
2023/12/02 10:54:49;;;;;;;18.90;8.25;;;;;;;-1.14;100.00;100614.22;7396207;19;20152;-41
2023/12/02 10:57:24;;;;;;;14.82;7.10;;;;;;;-1.18;100.00;100618.91;7372518;19;20198;-41
2023/12/02 11:00:03;;;;;;;12.43;5.90;;;;;;;-1.04;100.00;100615.91;7395659;19;20149;-42
2023/12/02 11:02:34;;;;;;;12.85;6.07;;;;;;;-1.13;100.00;100617.66;7375212;19;20229;-41
2023/12/02 11:05:18;;;;;;;13.50;5.75;;;;;;;-1.06;100.00;100619.97;7397238;19;20135;-42
2023/12/02 11:07:51;;;;;;;18.42;6.97;;;;;;;-0.98;100.00;100624.03;7372800;19;20217;-42
2023/12/02 11:10:28;;;;;;;12.70;5.93;;;;;;;-0.87;100.00;100629.13;7387801;19;20702;-40
2023/12/02 11:13:03;;;;;;;13.07;5.60;;;;;;;-0.94;100.00;100625.19;7363895;19;20204;-40
2023/12/02 11:15:40;;;;;;;11.85;6.15;;;;;;;-0.84;100.00;100629.38;7386060;19;20146;-41
2023/12/02 11:18:16;;;;;;;13.35;6.25;;;;;;;-0.87;100.00;100629.13;7364813;19;20903;-41
2023/12/02 11:20:53;;;;;;;12.70;5.63;;;;;;;-0.94;100.00;100634.44;7388123;19;20142;-43
2023/12/02 11:23:43;;;;;;;20.63;8.73;;;;;;;-0.89;100.00;100633.16;7358967;19;20629;-41